Port Hardy, Canada
Current Conditions -  °F | °C
As of 2:00 PM on Monday 26 Jan 2015 (Local Time) from CYZT Reporting Station
Overcast Overcast  
Wind Chill: 57°   Ceiling: 10000
Heat Index: 57°   Visibility: 20mi
Dew Point: 46°   Wind: 8mph
Humidity: 67%   Direction: 180°S
Pressure: 29.74"   Gusts: 22mph
Location:  50.72°N, 127.5°W
Report Text: CYZT 262200Z 18007G19KT 150V240 20SM SCT026 BKN100 OVC230 14/08 A2974 RMK SC3AC3CI2 SLP071 DENSITY ALT 100FT
Loading
Personal Weather Stations






























Interactive Weather Map New forecast layout! Learn more

10-Day Weather Forecast

Advertisements
Track Severe Weather on mobile